Time;durP1;ratioP1;P1;durP2;ratioP2;P2;SDS_P1;SDS_P2;PMS_P1;PMS_P2;Temp;Humidity;BMP_temperature;BMP_pressure;BME280_temperature;BME280_humidity;BME280_pressure;Samples;Min_cycle;Max_cycle;Signal;HPM_P1;HPM_P2
2022/07/12 00:01:43;;;;;;;4.05;3.05;;;;;;;;;;5049263;28;20081;-84
2022/07/12 00:04:10;;;;;;;3.08;2.75;;;;;;;;;;5050679;28;20063;-84
2022/07/12 00:06:36;;;;;;;3.15;2.60;;;;;;;;;;5047107;28;20090;-83
2022/07/12 00:09:02;;;;;;;14.70;3.40;;;;;;;;;;5048532;28;20041;-84
2022/07/12 00:11:29;;;;;;;5.72;2.85;;;;;;;;;;5051985;28;20024;-84
2022/07/12 00:13:58;;;;;;;2.95;2.65;;;;;;;;;;5043306;28;20029;-82
2022/07/12 00:16:24;;;;;;;3.47;2.65;;;;;;;;;;5043420;28;20029;-82
2022/07/12 00:18:51;;;;;;;3.00;2.70;;;;;;;;;;5047949;28;20402;-85
2022/07/12 00:21:19;;;;;;;4.43;2.70;;;;;;;;;;5050085;28;20024;-85
2022/07/12 00:23:46;;;;;;;3.42;2.50;;;;;;;;;;5044772;28;20100;-85
2022/07/12 00:26:12;;;;;;;6.70;2.97;;;;;;;;;;5052892;28;20024;-84
2022/07/12 00:28:38;;;;;;;16.10;3.97;;;;;;;;;;5049609;28;20388;-84
2022/07/12 00:31:05;;;;;;;8.40;3.20;;;;;;;;;;5053238;28;20040;-83
2022/07/12 00:33:31;;;;;;;8.68;3.33;;;;;;;;;;5046611;28;20028;-87
2022/07/12 00:36:01;;;;;;;2.67;2.47;;;;;;;;;;5050973;28;20024;-81
2022/07/12 00:38:27;;;;;;;6.05;2.90;;;;;;;;;;5046204;28;20024;-78
2022/07/12 00:40:53;;;;;;;3.17;2.70;;;;;;;;;;5051429;28;20032;-84
2022/07/12 00:43:19;;;;;;;4.72;2.80;;;;;;;;;;5066979;28;20024;-74
2022/07/12 00:45:45;;;;;;;2.55;2.25;;;;;;;;;;5051027;28;20029;-81
2022/07/12 00:48:11;;;;;;;5.32;2.70;;;;;;;;;;5057479;28;20032;-81
2022/07/12 00:50:38;;;;;;;3.42;2.67;;;;;;;;;;5070485;28;20027;-74
2022/07/12 00:53:04;;;;;;;2.97;2.58;;;;;;;;;;5057382;28;20048;-82
2022/07/12 00:55:30;;;;;;;3.58;2.88;;;;;;;;;;5056827;28;20039;-74
2022/07/12 00:57:56;;;;;;;3.67;2.88;;;;;;;;;;5057771;28;20049;-82
2022/07/12 01:00:26;;;;;;;8.30;2.70;;;;;;;;;;5052061;28;20086;-77
2022/07/12 01:02:53;;;;;;;2.72;2.53;;;;;;;;;;5058651;28;20028;-82
2022/07/12 01:05:19;;;;;;;3.15;2.70;;;;;;;;;;5057540;28;20065;-81
2022/07/12 01:07:46;;;;;;;3.67;2.33;;;;;;;;;;5067564;28;20066;-75
2022/07/12 01:10:12;;;;;;;4.28;2.78;;;;;;;;;;5056465;28;20029;-82
2022/07/12 01:12:38;;;;;;;3.90;2.50;;;;;;;;;;5071301;28;20115;-73
2022/07/12 01:15:07;;;;;;;4.72;2.78;;;;;;;;;;5067070;28;20081;-78
2022/07/12 01:17:34;;;;;;;4.43;2.70;;;;;;;;;;5060498;28;20040;-75
2022/07/12 01:20:00;;;;;;;5.53;2.85;;;;;;;;;;5071775;28;20025;-78
2022/07/12 01:22:27;;;;;;;2.97;2.70;;;;;;;;;;5063067;28;20811;-73
2022/07/12 01:24:53;;;;;;;3.05;2.75;;;;;;;;;;5067355;28;20115;-74
2022/07/12 01:27:20;;;;;;;5.05;2.95;;;;;;;;;;5064406;28;20028;-74
2022/07/12 01:29:46;;;;;;;2.97;2.72;;;;;;;;;;5067923;28;20098;-73
2022/07/12 01:32:24;;;;;;;3.38;3.08;;;;;;;;;;5068948;28;20112;-73
2022/07/12 01:35:01;;;;;;;3.50;2.83;;;;;;;;;;5063836;28;20025;-73
2022/07/12 01:37:31;;;;;;;3.17;2.88;;;;;;;;;;5060468;28;20643;-81
2022/07/12 01:39:58;;;;;;;2.87;2.67;;;;;;;;;;5064158;28;20024;-73
2022/07/12 01:42:25;;;;;;;3.45;2.65;;;;;;;;;;5062280;28;20274;-73
2022/07/12 01:44:52;;;;;;;2.63;2.42;;;;;;;;;;5063373;28;20024;-74
2022/07/12 01:47:22;;;;;;;2.95;2.65;;;;;;;;;;5062682;28;20518;-73
2022/07/12 01:49:48;;;;;;;3.10;2.55;;;;;;;;;;5064362;28;20361;-73
2022/07/12 01:52:15;;;;;;;3.13;2.75;;;;;;;;;;5057697;28;20063;-73
2022/07/12 01:54:42;;;;;;;2.97;2.63;;;;;;;;;;5062556;28;20417;-73
2022/07/12 01:57:08;;;;;;;3.08;2.35;;;;;;;;;;5060313;28;20028;-73
2022/07/12 01:59:36;;;;;;;4.57;2.42;;;;;;;;;;5058546;28;20031;-73
2022/07/12 02:02:02;;;;;;;3.53;2.80;;;;;;;;;;5061046;28;20028;-74
2022/07/12 02:04:28;;;;;;;2.97;2.67;;;;;;;;;;5065237;28;20036;-73
2022/07/12 02:06:55;;;;;;;3.42;2.75;;;;;;;;;;5056900;28;20428;-74
2022/07/12 02:09:21;;;;;;;3.45;2.65;;;;;;;;;;5054026;28;20578;-87
2022/07/12 02:11:47;;;;;;;4.10;2.67;;;;;;;;;;5055677;28;20634;-75
2022/07/12 02:14:14;;;;;;;4.53;3.00;;;;;;;;;;5054342;28;20024;-75
2022/07/12 02:16:40;;;;;;;3.35;2.42;;;;;;;;;;5055415;28;20033;-77
2022/07/12 02:19:06;;;;;;;2.90;2.60;;;;;;;;;;5048515;28;20738;-75
2022/07/12 02:21:33;;;;;;;5.63;2.67;;;;;;;;;;5053405;28;20021;-74
2022/07/12 02:23:59;;;;;;;3.35;3.00;;;;;;;;;;5058648;28;20158;-76
2022/07/12 02:26:26;;;;;;;4.47;2.70;;;;;;;;;;5057273;28;20025;-76
2022/07/12 02:28:52;;;;;;;4.97;3.17;;;;;;;;;;5061187;28;20033;-75
2022/07/12 02:31:18;;;;;;;3.50;2.60;;;;;;;;;;5050025;28;20029;-75
2022/07/12 02:33:44;;;;;;;3.72;2.63;;;;;;;;;;5060221;28;20028;-82
2022/07/12 02:36:10;;;;;;;3.00;2.70;;;;;;;;;;5057532;28;20512;-75
2022/07/12 02:38:37;;;;;;;3.40;2.65;;;;;;;;;;5056812;28;20032;-75
2022/07/12 02:41:03;;;;;;;2.83;2.60;;;;;;;;;;5062059;28;20024;-74
2022/07/12 02:43:30;;;;;;;8.25;3.13;;;;;;;;;;5051496;28;20041;-75
2022/07/12 02:46:03;;;;;;;4.15;3.10;;;;;;;;;;5058519;28;20025;-75
2022/07/12 02:48:29;;;;;;;3.53;2.70;;;;;;;;;;5054025;28;20033;-76
2022/07/12 02:50:55;;;;;;;3.85;3.05;;;;;;;;;;5057636;28;20036;-77
2022/07/12 02:53:22;;;;;;;6.55;3.53;;;;;;;;;;5051436;28;20512;-75
2022/07/12 02:55:48;;;;;;;3.25;2.83;;;;;;;;;;5054298;28;20085;-74
2022/07/12 02:58:14;;;;;;;3.22;2.80;;;;;;;;;;5058308;28;20544;-74
2022/07/12 03:00:41;;;;;;;3.40;3.10;;;;;;;;;;5052034;28;20036;-74
2022/07/12 03:03:08;;;;;;;4.45;3.00;;;;;;;;;;5056463;28;20028;-74
2022/07/12 03:05:35;;;;;;;3.75;2.80;;;;;;;;;;5056591;28;20043;-74
2022/07/12 03:08:02;;;;;;;4.43;3.40;;;;;;;;;;5055238;28;20389;-74
2022/07/12 03:10:28;;;;;;;2.97;2.67;;;;;;;;;;5048322;28;20551;-75
2022/07/12 03:12:54;;;;;;;6.40;3.20;;;;;;;;;;5053770;28;20039;-74
2022/07/12 03:15:20;;;;;;;6.95;3.17;;;;;;;;;;5046547;28;20039;-77
2022/07/12 03:17:47;;;;;;;3.20;2.70;;;;;;;;;;5046150;28;20457;-76
2022/07/12 03:20:14;;;;;;;4.03;3.00;;;;;;;;;;5042629;28;20180;-77
2022/07/12 03:22:48;;;;;;;4.13;3.05;;;;;;;;;;5047220;28;20028;-76
2022/07/12 03:25:14;;;;;;;3.70;3.05;;;;;;;;;;5043875;28;20075;-74
2022/07/12 03:27:41;;;;;;;3.15;2.85;;;;;;;;;;5039148;28;20056;-76
2022/07/12 03:30:08;;;;;;;5.10;2.67;;;;;;;;;;5040595;28;20086;-74
2022/07/12 03:32:34;;;;;;;3.75;2.80;;;;;;;;;;5040282;28;20066;-79
2022/07/12 03:35:00;;;;;;;3.40;3.10;;;;;;;;;;5051746;28;20111;-76
2022/07/12 03:37:27;;;;;;;4.55;2.90;;;;;;;;;;5041915;28;20132;-77
2022/07/12 03:39:53;;;;;;;4.15;2.83;;;;;;;;;;5048307;28;20060;-75
2022/07/12 03:42:20;;;;;;;5.53;2.92;;;;;;;;;;5041849;28;20048;-74
2022/07/12 03:44:46;;;;;;;4.35;3.28;;;;;;;;;;5042237;28;20465;-75
2022/07/12 03:47:12;;;;;;;3.72;3.08;;;;;;;;;;5039562;28;20804;-75
2022/07/12 03:49:38;;;;;;;3.08;2.85;;;;;;;;;;5042739;28;20028;-75
2022/07/12 03:52:04;;;;;;;3.25;2.95;;;;;;;;;;5045929;28;20052;-74
2022/07/12 03:54:30;;;;;;;4.63;2.75;;;;;;;;;;5047463;28;20032;-81
2022/07/12 03:57:15;;;;;;;3.47;3.03;;;;;;;;;;5049316;28;20618;-78
2022/07/12 03:59:45;;;;;;;5.28;3.05;;;;;;;;;;5045273;28;20024;-83
2022/07/12 04:02:11;;;;;;;3.55;3.08;;;;;;;;;;5040924;28;20086;-85
2022/07/12 04:04:38;;;;;;;4.70;3.25;;;;;;;;;;5041864;28;20025;-86
2022/07/12 04:07:04;;;;;;;3.40;2.95;;;;;;;;;;5048945;28;20033;-86
2022/07/12 04:09:30;;;;;;;6.90;4.00;;;;;;;;;;5050230;28;20028;-81
2022/07/12 04:11:57;;;;;;;8.55;3.20;;;;;;;;;;5043557;28;20036;-85
2022/07/12 04:14:23;;;;;;;5.65;3.40;;;;;;;;;;5042727;28;20524;-77
2022/07/12 04:16:49;;;;;;;6.47;3.88;;;;;;;;;;5050112;28;20043;-83
2022/07/12 04:19:15;;;;;;;6.00;4.07;;;;;;;;;;5040622;28;20025;-83
2022/07/12 04:21:42;;;;;;;6.05;3.40;;;;;;;;;;5042294;28;20081;-76
2022/07/12 04:24:08;;;;;;;5.47;3.58;;;;;;;;;;5042314;28;20017;-75
2022/07/12 04:26:34;;;;;;;3.20;2.88;;;;;;;;;;5044745;28;20013;-80
2022/07/12 04:29:00;;;;;;;3.65;2.90;;;;;;;;;;5049925;28;20094;-79
2022/07/12 04:31:26;;;;;;;3.10;2.90;;;;;;;;;;5050562;28;20111;-81
2022/07/12 04:33:52;;;;;;;3.25;2.83;;;;;;;;;;5050505;28;20032;-85
2022/07/12 04:36:19;;;;;;;4.43;2.67;;;;;;;;;;5043012;28;20028;-78
2022/07/12 04:38:45;;;;;;;3.78;2.78;;;;;;;;;;5049866;28;20067;-86
2022/07/12 04:41:11;;;;;;;3.35;2.83;;;;;;;;;;5042251;28;20021;-75
2022/07/12 04:43:37;;;;;;;3.40;2.72;;;;;;;;;;5041579;28;20025;-76
2022/07/12 04:46:07;;;;;;;7.03;3.40;;;;;;;;;;5041508;28;20053;-77
2022/07/12 04:48:33;;;;;;;8.85;3.85;;;;;;;;;;5039731;28;20055;-77
2022/07/12 04:50:59;;;;;;;8.60;3.35;;;;;;;;;;5053454;28;20036;-86
2022/07/12 04:53:25;;;;;;;8.15;3.88;;;;;;;;;;5041749;28;20083;-79
2022/07/12 04:55:51;;;;;;;4.03;3.63;;;;;;;;;;5049513;28;20029;-78
2022/07/12 04:58:17;;;;;;;6.35;3.70;;;;;;;;;;5048172;28;20036;-78
2022/07/12 05:00:44;;;;;;;6.85;3.63;;;;;;;;;;5040302;28;20123;-86
2022/07/12 05:03:10;;;;;;;5.70;3.92;;;;;;;;;;5040853;28;20037;-76
2022/07/12 05:05:36;;;;;;;10.95;7.32;;;;;;;;;;5039943;28;20028;-83
2022/07/12 05:08:02;;;;;;;7.95;6.78;;;;;;;;;;5046030;28;20028;-86
2022/07/12 05:10:28;;;;;;;8.80;6.03;;;;;;;;;;5048592;28;20036;-76
2022/07/12 05:12:54;;;;;;;6.97;5.82;;;;;;;;;;5044331;28;20051;-73
2022/07/12 05:15:21;;;;;;;7.47;6.32;;;;;;;;;;5045330;28;20025;-76
2022/07/12 05:17:47;;;;;;;7.60;5.05;;;;;;;;;;5045501;28;20044;-73
2022/07/12 05:20:13;;;;;;;6.07;5.35;;;;;;;;;;5043875;28;20036;-75
2022/07/12 05:22:41;;;;;;;5.63;4.53;;;;;;;;;;5037919;28;20025;-73
2022/07/12 05:25:08;;;;;;;5.88;5.00;;;;;;;;;;5040053;28;20098;-74
2022/07/12 05:27:35;;;;;;;5.88;4.65;;;;;;;;;;5050237;28;20102;-75
2022/07/12 05:30:01;;;;;;;6.57;4.65;;;;;;;;;;5041874;28;20480;-73
2022/07/12 05:32:27;;;;;;;7.47;4.40;;;;;;;;;;5056729;28;20036;-73
2022/07/12 05:34:53;;;;;;;5.43;4.28;;;;;;;;;;5041992;28;20029;-73
2022/07/12 05:37:19;;;;;;;5.97;4.45;;;;;;;;;;5042420;28;20090;-73
2022/07/12 05:39:45;;;;;;;7.25;4.80;;;;;;;;;;5044726;28;20025;-74
2022/07/12 05:42:12;;;;;;;8.15;4.40;;;;;;;;;;5050100;28;20737;-76
2022/07/12 05:44:38;;;;;;;5.45;4.38;;;;;;;;;;5045577;28;20031;-74
2022/07/12 05:47:04;;;;;;;5.75;4.60;;;;;;;;;;5042049;28;20036;-73
2022/07/12 05:49:30;;;;;;;6.57;4.53;;;;;;;;;;5041874;28;20033;-75
2022/07/12 05:54:41;;;;;;;4.10;3.67;;;;;;;;;;5042511;28;20052;-73
2022/07/12 05:57:07;;;;;;;6.53;3.38;;;;;;;;;;5049359;28;20269;-75
2022/07/12 05:59:35;;;;;;;4.32;2.97;;;;;;;;;;5050810;28;20028;-76
2022/07/12 06:02:01;;;;;;;3.50;2.88;;;;;;;;;;5047222;28;20047;-74
2022/07/12 06:04:29;;;;;;;3.80;2.67;;;;;;;;;;5051608;28;20821;-75
2022/07/12 06:06:56;;;;;;;3.38;2.63;;;;;;;;;;5041767;28;20025;-76
2022/07/12 06:09:22;;;;;;;2.67;2.47;;;;;;;;;;5041581;28;20310;-73
2022/07/12 06:11:48;;;;;;;3.40;2.83;;;;;;;;;;5040579;28;20029;-73
2022/07/12 06:14:14;;;;;;;3.15;2.85;;;;;;;;;;5038066;28;20935;-73
2022/07/12 06:16:40;;;;;;;4.05;2.92;;;;;;;;;;5043692;28;20036;-73
2022/07/12 06:19:07;;;;;;;4.13;2.58;;;;;;;;;;5046712;28;20036;-73
2022/07/12 06:21:33;;;;;;;3.10;2.78;;;;;;;;;;5037311;28;20548;-73
2022/07/12 06:23:59;;;;;;;3.05;2.80;;;;;;;;;;5038797;28;20779;-73
2022/07/12 06:26:25;;;;;;;3.13;2.60;;;;;;;;;;5041828;28;20028;-74
2022/07/12 06:28:52;;;;;;;5.90;2.85;;;;;;;;;;5046475;28;20025;-73
2022/07/12 06:31:18;;;;;;;3.20;2.88;;;;;;;;;;5046930;28;20040;-73
2022/07/12 06:33:44;;;;;;;3.20;2.40;;;;;;;;;;5042184;28;20044;-74
2022/07/12 06:36:10;;;;;;;7.78;5.03;;;;;;;;;;5050554;28;20021;-75
2022/07/12 06:38:36;;;;;;;22.25;15.50;;;;;;;;;;5041211;28;20359;-74
2022/07/12 06:41:03;;;;;;;49.20;32.28;;;;;;;;;;5041446;28;20040;-75
2022/07/12 06:43:29;;;;;;;36.40;23.15;;;;;;;;;;5043782;28;20032;-73
2022/07/12 06:45:55;;;;;;;19.90;12.00;;;;;;;;;;5047055;28;20469;-73
2022/07/12 06:48:21;;;;;;;71.45;40.95;;;;;;;;;;5040668;28;20095;-74
2022/07/12 06:50:47;;;;;;;75.53;40.53;;;;;;;;;;5040928;28;20048;-74
2022/07/12 06:53:13;;;;;;;34.42;20.08;;;;;;;;;;5049312;28;20053;-74
2022/07/12 06:55:39;;;;;;;6.57;5.13;;;;;;;;;;5045818;28;20043;-74
2022/07/12 06:58:05;;;;;;;8.23;5.28;;;;;;;;;;5042774;28;20086;-73
2022/07/12 07:00:32;;;;;;;7.85;4.60;;;;;;;;;;5043105;28;20052;-74
2022/07/12 07:02:58;;;;;;;5.93;3.95;;;;;;;;;;5045582;28;20051;-73
2022/07/12 07:05:24;;;;;;;5.22;3.75;;;;;;;;;;5043002;28;20021;-74
2022/07/12 07:07:50;;;;;;;6.38;4.07;;;;;;;;;;5045006;28;20035;-73
2022/07/12 07:10:16;;;;;;;5.57;4.25;;;;;;;;;;5046688;28;20637;-74
2022/07/12 07:12:42;;;;;;;5.30;3.50;;;;;;;;;;5043035;28;20033;-74
2022/07/12 07:15:09;;;;;;;5.20;3.50;;;;;;;;;;5043237;28;20029;-74
2022/07/12 07:17:35;;;;;;;5.47;3.10;;;;;;;;;;5042510;28;20041;-74
2022/07/12 07:20:01;;;;;;;6.32;3.42;;;;;;;;;;5042692;28;20388;-74
2022/07/12 07:22:27;;;;;;;3.97;3.00;;;;;;;;;;5042695;28;20021;-74
2022/07/12 07:24:54;;;;;;;4.70;3.05;;;;;;;;;;5048584;28;20021;-75
2022/07/12 07:27:20;;;;;;;6.00;3.55;;;;;;;;;;5054530;28;20021;-74
2022/07/12 07:32:31;;;;;;;6.40;3.15;;;;;;;;;;5054491;28;20035;-74
2022/07/12 07:34:57;;;;;;;5.65;3.55;;;;;;;;;;5060690;28;20036;-74
2022/07/12 07:37:24;;;;;;;5.28;3.55;;;;;;;;;;5046872;28;20094;-74
2022/07/12 07:39:50;;;;;;;5.53;3.38;;;;;;;;;;5058769;28;20020;-75
2022/07/12 07:42:16;;;;;;;6.40;3.33;;;;;;;;;;5062087;28;20024;-74
2022/07/12 07:44:42;;;;;;;4.70;3.42;;;;;;;;;;5061371;28;20461;-74
2022/07/12 07:47:09;;;;;;;3.75;2.60;;;;;;;;;;5055011;28;20067;-74
2022/07/12 07:49:35;;;;;;;5.93;3.13;;;;;;;;;;5052938;28;20044;-73
2022/07/12 07:52:01;;;;;;;5.65;2.90;;;;;;;;;;5061265;28;20524;-74
2022/07/12 07:54:27;;;;;;;13.05;3.40;;;;;;;;;;5062363;28;20028;-74
2022/07/12 07:56:53;;;;;;;5.30;3.00;;;;;;;;;;5054479;28;20596;-73
2022/07/12 07:59:20;;;;;;;5.22;2.88;;;;;;;;;;5047742;28;20037;-73
2022/07/12 08:01:47;;;;;;;4.65;2.92;;;;;;;;;;5053396;28;20021;-75
2022/07/12 08:04:14;;;;;;;4.28;3.08;;;;;;;;;;5053923;28;20057;-73
2022/07/12 08:06:41;;;;;;;3.30;3.00;;;;;;;;;;5051287;28;20040;-73
2022/07/12 08:09:07;;;;;;;6.93;3.13;;;;;;;;;;5055197;28;20028;-73
2022/07/12 08:11:33;;;;;;;6.82;3.28;;;;;;;;;;5061861;28;20029;-74
2022/07/12 08:13:59;;;;;;;4.00;2.75;;;;;;;;;;5054451;28;20119;-73
2022/07/12 08:16:25;;;;;;;4.90;3.22;;;;;;;;;;5051430;28;20067;-74
2022/07/12 08:18:52;;;;;;;4.72;3.20;;;;;;;;;;5055338;28;20496;-73
2022/07/12 08:21:18;;;;;;;3.80;3.10;;;;;;;;;;5053663;28;20070;-74
2022/07/12 08:23:44;;;;;;;6.05;3.50;;;;;;;;;;5049150;28;20083;-74
2022/07/12 08:26:10;;;;;;;5.05;3.00;;;;;;;;;;5050828;28;20094;-74
2022/07/12 08:28:36;;;;;;;3.78;2.80;;;;;;;;;;5051003;28;20029;-74
2022/07/12 08:31:03;;;;;;;6.85;3.00;;;;;;;;;;5046989;28;20649;-73
2022/07/12 08:33:29;;;;;;;3.20;2.90;;;;;;;;;;5054500;28;20043;-74
2022/07/12 08:35:55;;;;;;;3.38;2.72;;;;;;;;;;5054022;28;20021;-73
2022/07/12 08:38:21;;;;;;;5.18;2.78;;;;;;;;;;5046658;28;20025;-73
2022/07/12 08:40:47;;;;;;;3.47;3.17;;;;;;;;;;5053630;28;20055;-73
2022/07/12 08:43:14;;;;;;;3.03;2.67;;;;;;;;;;5053258;28;20071;-73
2022/07/12 08:45:43;;;;;;;2.95;2.53;;;;;;;;;;5052005;28;20025;-74
2022/07/12 08:48:10;;;;;;;3.38;2.80;;;;;;;;;;5053721;28;20029;-73
2022/07/12 08:50:36;;;;;;;4.25;2.72;;;;;;;;;;5050982;28;20056;-73
2022/07/12 08:53:02;;;;;;;4.45;2.90;;;;;;;;;;5051011;28;20043;-75
2022/07/12 08:55:36;;;;;;;4.85;2.70;;;;;;;;;;5048195;28;20028;-73
2022/07/12 08:58:05;;;;;;;4.13;2.92;;;;;;;;;;5051657;28;20571;-74
2022/07/12 09:00:31;;;;;;;5.10;2.83;;;;;;;;;;5059542;28;20127;-73
2022/07/12 09:03:02;;;;;;;3.10;2.80;;;;;;;;;;5063877;28;20086;-73
2022/07/12 09:05:29;;;;;;;4.15;2.92;;;;;;;;;;5055352;28;20017;-73
2022/07/12 09:08:06;;;;;;;6.82;3.22;;;;;;;;;;5064296;28;20176;-75
2022/07/12 09:10:33;;;;;;;4.45;3.47;;;;;;;;;;5062350;28;20020;-73
2022/07/12 09:12:59;;;;;;;5.30;2.90;;;;;;;;;;5060482;28;20043;-73
2022/07/12 09:15:26;;;;;;;5.18;2.92;;;;;;;;;;5063461;28;20549;-77
2022/07/12 09:18:00;;;;;;;4.05;3.20;;;;;;;;;;5064808;28;20500;-73
2022/07/12 09:20:33;;;;;;;5.05;2.63;;;;;;;;;;5064606;28;20059;-77
2022/07/12 09:23:04;;;;;;;4.45;2.65;;;;;;;;;;5055246;28;20485;-72
2022/07/12 09:25:32;;;;;;;3.20;2.80;;;;;;;;;;5052371;28;20600;-76
2022/07/12 09:27:58;;;;;;;3.10;2.47;;;;;;;;;;5062557;28;20124;-74
2022/07/12 09:30:27;;;;;;;3.28;2.80;;;;;;;;;;5052378;28;20036;-76
2022/07/12 09:36:06;;;;;;;5.53;4.07;;;;;;;;;;5055194;28;20145;-75
2022/07/12 09:38:37;;;;;;;6.20;4.65;;;;;;;;;;5048840;28;20040;-75
2022/07/12 09:41:03;;;;;;;3.88;2.90;;;;;;;;;;5048268;28;20025;-76
2022/07/12 09:43:29;;;;;;;5.18;4.40;;;;;;;;;;5056283;28;20070;-75
2022/07/12 09:45:56;;;;;;;3.35;3.05;;;;;;;;;;5062161;28;20103;-75
2022/07/12 09:48:22;;;;;;;4.70;3.17;;;;;;;;;;5063348;28;20053;-75
2022/07/12 09:50:50;;;;;;;11.48;8.00;;;;;;;;;;5056519;28;20587;-74
2022/07/12 09:53:21;;;;;;;7.60;5.03;;;;;;;;;;5056426;28;20053;-75
2022/07/12 09:55:47;;;;;;;;;;;;;;;;;;5062221;28;20058;-75
2022/07/12 09:58:14;;;;;;;7.80;6.07;;;;;;;;;;5048193;28;19920;-75
2022/07/12 10:00:40;;;;;;;6.78;4.93;;;;;;;;;;5057847;28;20100;-75
2022/07/12 10:03:08;;;;;;;7.07;4.30;;;;;;;;;;5055336;28;20025;-75
2022/07/12 10:05:35;;;;;;;5.35;3.25;;;;;;;;;;5057771;28;20025;-75
2022/07/12 10:08:02;;;;;;;4.82;3.50;;;;;;;;;;5063599;28;20153;-75
2022/07/12 10:10:29;;;;;;;5.85;3.80;;;;;;;;;;5062403;28;20036;-75
2022/07/12 10:12:56;;;;;;;5.43;3.40;;;;;;;;;;5061786;28;20031;-74
2022/07/12 10:15:26;;;;;;;5.00;4.03;;;;;;;;;;5052098;28;20075;-75
2022/07/12 10:17:58;;;;;;;6.68;4.65;;;;;;;;;;5060839;28;20093;-74
2022/07/12 10:20:29;;;;;;;4.60;3.35;;;;;;;;;;5063145;28;20372;-76
2022/07/12 10:22:56;;;;;;;5.50;4.17;;;;;;;;;;5060291;28;20056;-76
2022/07/12 10:25:35;;;;;;;3.95;3.15;;;;;;;;;;5062899;28;20021;-75
2022/07/12 10:28:02;;;;;;;4.15;3.28;;;;;;;;;;5063123;28;20094;-75
2022/07/12 10:30:28;;;;;;;4.80;3.45;;;;;;;;;;5062896;28;20109;-75
2022/07/12 10:32:59;;;;;;;4.40;3.30;;;;;;;;;;5048605;28;20503;-75
2022/07/12 10:35:27;;;;;;;4.43;3.40;;;;;;;;;;5056260;28;20025;-75
2022/07/12 10:38:12;;;;;;;3.80;2.80;;;;;;;;;;5050603;28;20082;-74
2022/07/12 10:40:38;;;;;;;4.40;2.78;;;;;;;;;;5058598;28;20033;-77
2022/07/12 10:43:04;;;;;;;6.18;3.65;;;;;;;;;;5059833;28;20019;-76
2022/07/12 10:45:32;;;;;;;3.83;3.03;;;;;;;;;;5052816;28;20025;-76
2022/07/12 10:47:59;;;;;;;3.95;3.25;;;;;;;;;;5042418;28;20029;-75
2022/07/12 10:50:44;;;;;;;8.07;3.08;;;;;;;;;;5043532;28;20430;-76
2022/07/12 10:53:22;;;;;;;3.90;3.30;;;;;;;;;;5042853;28;20044;-76
2022/07/12 10:56:07;;;;;;;5.07;3.00;;;;;;;;;;5046108;28;20130;-77
2022/07/12 10:58:41;;;;;;;3.90;3.13;;;;;;;;;;5048124;28;20535;-75
2022/07/12 11:01:10;;;;;;;4.90;3.25;;;;;;;;;;5044958;28;20106;-76
2022/07/12 11:03:44;;;;;;;3.42;3.13;;;;;;;;;;5053086;28;20044;-76
2022/07/12 11:06:11;;;;;;;3.72;3.35;;;;;;;;;;5048171;28;20052;-77
2022/07/12 11:08:48;;;;;;;4.43;3.28;;;;;;;;;;5037932;28;20029;-76
2022/07/12 11:11:14;;;;;;;4.65;4.00;;;;;;;;;;5039732;28;20079;-77
2022/07/12 11:13:40;;;;;;;4.65;3.35;;;;;;;;;;5039595;28;20063;-76
2022/07/12 11:16:06;;;;;;;4.25;3.08;;;;;;;;;;5044696;28;20024;-77
2022/07/12 11:18:33;;;;;;;4.20;3.30;;;;;;;;;;5048361;28;20047;-77
2022/07/12 11:21:00;;;;;;;6.13;4.00;;;;;;;;;;5039988;28;20055;-76
2022/07/12 11:23:27;;;;;;;4.40;3.92;;;;;;;;;;5048629;28;20468;-76
2022/07/12 11:25:56;;;;;;;3.70;3.38;;;;;;;;;;5040366;28;20385;-76
2022/07/12 11:28:25;;;;;;;5.93;3.63;;;;;;;;;;5044468;28;20035;-76
2022/07/12 11:30:52;;;;;;;4.18;3.67;;;;;;;;;;5039473;28;20025;-76
2022/07/12 11:33:18;;;;;;;3.95;3.42;;;;;;;;;;5044740;28;20048;-76
2022/07/12 11:35:45;;;;;;;5.18;3.45;;;;;;;;;;5047856;28;20028;-76
2022/07/12 11:38:11;;;;;;;5.78;4.57;;;;;;;;;;5041135;28;20085;-77
2022/07/12 11:40:37;;;;;;;6.35;5.07;;;;;;;;;;5040561;28;20060;-76
2022/07/12 11:43:04;;;;;;;5.03;4.30;;;;;;;;;;5041948;28;20574;-76
2022/07/12 11:45:34;;;;;;;5.13;4.10;;;;;;;;;;5046744;28;20044;-76
2022/07/12 11:48:01;;;;;;;4.47;3.72;;;;;;;;;;5043733;28;20060;-76
2022/07/12 11:50:28;;;;;;;4.55;3.42;;;;;;;;;;5045307;28;20017;-75
2022/07/12 11:52:55;;;;;;;5.85;4.10;;;;;;;;;;5041831;28;20067;-75
2022/07/12 11:55:22;;;;;;;3.63;3.25;;;;;;;;;;5053945;28;20282;-76
2022/07/12 11:57:49;;;;;;;3.78;3.38;;;;;;;;;;5041574;28;20037;-76
2022/07/12 12:00:18;;;;;;;3.97;3.60;;;;;;;;;;5045494;28;20146;-76
2022/07/12 12:02:44;;;;;;;7.95;3.58;;;;;;;;;;5044876;28;20029;-76
2022/07/12 12:05:11;;;;;;;3.40;3.10;;;;;;;;;;5040352;28;20285;-76
2022/07/12 12:07:38;;;;;;;4.38;3.97;;;;;;;;;;5040638;28;20242;-76
2022/07/12 12:10:05;;;;;;;3.70;3.38;;;;;;;;;;5049728;28;20033;-76
2022/07/12 12:12:38;;;;;;;4.80;3.65;;;;;;;;;;5037640;28;20059;-76
2022/07/12 12:15:05;;;;;;;3.90;3.60;;;;;;;;;;5041742;28;20027;-76
2022/07/12 12:17:32;;;;;;;3.80;3.40;;;;;;;;;;5038796;28;20039;-76
2022/07/12 12:19:59;;;;;;;4.13;3.65;;;;;;;;;;5045151;28;20029;-75
2022/07/12 12:22:33;;;;;;;4.03;3.40;;;;;;;;;;5048544;28;20025;-76
2022/07/12 12:25:04;;;;;;;4.03;3.72;;;;;;;;;;5046310;28;20180;-75
2022/07/12 12:27:31;;;;;;;3.70;3.40;;;;;;;;;;5043861;28;20036;-75
2022/07/12 12:30:07;;;;;;;3.70;3.40;;;;;;;;;;5039495;28;20265;-75
2022/07/12 12:32:59;;;;;;;4.22;3.25;;;;;;;;;;5042828;28;20021;-76
2022/07/12 12:35:36;;;;;;;3.95;3.55;;;;;;;;;;5043480;28;20401;-76
2022/07/12 12:38:03;;;;;;;4.70;3.40;;;;;;;;;;5046273;28;20559;-76
2022/07/12 12:40:30;;;;;;;4.57;3.63;;;;;;;;;;5046265;28;20029;-75
2022/07/12 12:43:10;;;;;;;3.65;3.10;;;;;;;;;;5041813;28;20048;-76
2022/07/12 12:45:37;;;;;;;5.05;3.35;;;;;;;;;;5040862;28;20067;-76
2022/07/12 12:48:05;;;;;;;3.72;3.42;;;;;;;;;;5040358;28;20048;-76
2022/07/12 12:50:41;;;;;;;3.92;3.53;;;;;;;;;;5051653;28;20698;-76
2022/07/12 12:53:11;;;;;;;4.13;3.55;;;;;;;;;;5043289;28;20055;-76
2022/07/12 12:55:37;;;;;;;5.75;3.65;;;;;;;;;;5048064;28;20083;-76
2022/07/12 12:58:04;;;;;;;3.95;3.55;;;;;;;;;;5044757;28;20450;-75
2022/07/12 13:00:31;;;;;;;3.28;2.97;;;;;;;;;;5045129;28;20095;-75
2022/07/12 13:03:00;;;;;;;4.88;3.45;;;;;;;;;;5046509;28;20147;-74
2022/07/12 13:05:30;;;;;;;3.75;3.10;;;;;;;;;;5039020;28;20068;-74
2022/07/12 13:07:56;;;;;;;5.68;3.60;;;;;;;;;;5038561;28;20039;-74
2022/07/12 13:10:23;;;;;;;3.90;3.20;;;;;;;;;;5047690;28;20220;-75
2022/07/12 13:12:50;;;;;;;4.30;3.30;;;;;;;;;;5039573;28;20025;-75
2022/07/12 13:15:16;;;;;;;4.90;3.10;;;;;;;;;;5046313;28;20209;-74
2022/07/12 13:17:43;;;;;;;4.32;3.63;;;;;;;;;;5040244;28;20033;-73
2022/07/12 13:20:09;;;;;;;10.70;3.58;;;;;;;;;;5046002;28;20029;-74
2022/07/12 13:22:36;;;;;;;4.15;3.30;;;;;;;;;;5039342;28;20382;-74
2022/07/12 13:25:02;;;;;;;6.05;3.40;;;;;;;;;;5047909;28;20028;-74
2022/07/12 13:27:29;;;;;;;3.92;3.30;;;;;;;;;;5037710;28;20052;-75
2022/07/12 13:29:55;;;;;;;3.80;3.20;;;;;;;;;;5039992;28;20315;-74
2022/07/12 13:32:21;;;;;;;3.30;3.00;;;;;;;;;;5043676;28;20043;-74
2022/07/12 13:34:48;;;;;;;4.70;3.72;;;;;;;;;;5040624;28;20029;-74
2022/07/12 13:37:14;;;;;;;3.83;3.50;;;;;;;;;;5039046;28;20443;-73
2022/07/12 13:42:26;;;;;;;3.50;3.20;;;;;;;;;;5048743;28;20051;-74
2022/07/12 13:44:53;;;;;;;3.90;3.50;;;;;;;;;;5037510;28;20021;-73
2022/07/12 13:47:23;;;;;;;3.47;3.17;;;;;;;;;;5047109;28;20124;-74
2022/07/12 13:49:50;;;;;;;5.97;3.33;;;;;;;;;;5040553;28;20293;-74
2022/07/12 13:52:17;;;;;;;3.63;3.08;;;;;;;;;;5039795;28;20385;-74
2022/07/12 13:54:43;;;;;;;3.50;3.03;;;;;;;;;;5055090;28;20022;-75
2022/07/12 13:57:10;;;;;;;4.25;3.10;;;;;;;;;;5052642;28;20029;-75
2022/07/12 13:59:39;;;;;;;4.32;3.47;;;;;;;;;;5042937;28;20037;-74
2022/07/12 14:02:05;;;;;;;3.63;3.30;;;;;;;;;;5049724;28;20505;-76
2022/07/12 14:04:32;;;;;;;3.90;3.35;;;;;;;;;;5043685;28;20025;-74
2022/07/12 14:06:58;;;;;;;4.20;3.22;;;;;;;;;;5046504;28;20392;-73
2022/07/12 14:09:25;;;;;;;4.82;3.40;;;;;;;;;;5051846;28;20028;-75
2022/07/12 14:11:51;;;;;;;3.33;3.05;;;;;;;;;;5043953;28;20063;-74
2022/07/12 14:15:09;;;;;;;4.65;3.30;;;;;;;;;;5049354;28;20029;-75
2022/07/12 14:17:03;;;;;;;4.38;3.13;;;;;;;;;;5049078;28;20212;-74
2022/07/12 14:19:29;;;;;;;4.95;3.33;;;;;;;;;;5053659;28;20037;-74
2022/07/12 14:21:55;;;;;;;3.92;3.45;;;;;;;;;;5044495;28;20021;-73
2022/07/12 14:24:21;;;;;;;3.33;2.88;;;;;;;;;;5049354;28;20040;-74
2022/07/12 14:26:48;;;;;;;4.20;3.17;;;;;;;;;;5050677;28;20383;-73
2022/07/12 14:29:14;;;;;;;6.47;3.58;;;;;;;;;;5048661;28;20032;-75
2022/07/12 14:31:40;;;;;;;7.60;3.22;;;;;;;;;;5050389;28;20100;-74
2022/07/12 14:34:06;;;;;;;6.45;3.58;;;;;;;;;;5046452;28;20121;-74
2022/07/12 14:36:32;;;;;;;5.53;3.22;;;;;;;;;;5052219;28;20523;-74
2022/07/12 14:38:58;;;;;;;5.03;3.30;;;;;;;;;;5050387;28;20041;-73
2022/07/12 14:41:25;;;;;;;6.18;3.40;;;;;;;;;;5045786;28;20069;-75
2022/07/12 14:43:51;;;;;;;8.02;3.75;;;;;;;;;;5044578;28;20044;-75
2022/07/12 14:46:17;;;;;;;11.23;3.88;;;;;;;;;;5044398;28;20032;-76
2022/07/12 14:48:44;;;;;;;4.25;3.30;;;;;;;;;;5051073;28;20040;-74
2022/07/12 14:51:11;;;;;;;4.93;3.50;;;;;;;;;;5042120;28;20039;-74
2022/07/12 14:53:37;;;;;;;3.90;3.60;;;;;;;;;;5042738;28;20049;-74
2022/07/12 14:56:03;;;;;;;7.30;3.50;;;;;;;;;;5045648;28;20043;-73